createdAt,value
2023-02-24T00:00:23.157Z,39.70
2023-02-24T00:02:10.556Z,41.25
2023-02-24T00:03:34.866Z,40.85
2023-02-24T00:04:55.025Z,44.67
2023-02-24T00:06:16.443Z,45.22
2023-02-24T00:07:46.954Z,45.08
2023-02-24T00:09:09.735Z,49.10
2023-02-24T00:10:31.110Z,47.42
2023-02-24T00:12:33.311Z,50.67
2023-02-24T00:13:58.914Z,51.83
2023-02-24T00:14:49.706Z,48.00
2023-02-24T00:16:31.784Z,43.33
2023-02-24T00:18:40.245Z,39.33
2023-02-24T00:19:54.944Z,39.05
2023-02-24T00:22:53.931Z,34.72
2023-02-24T00:24:11.210Z,38.25
2023-02-24T00:25:22.553Z,37.20
2023-02-24T00:28:58.116Z,35.63
2023-02-24T00:30:04.437Z,34.67
2023-02-24T00:31:23.739Z,34.83
2023-02-24T00:32:33.958Z,35.22
2023-02-24T00:33:55.035Z,35.33
2023-02-24T00:35:06.758Z,36.58
2023-02-24T00:36:11.120Z,34.00
2023-02-24T00:37:20.453Z,32.70
2023-02-24T00:38:25.633Z,32.50
2023-02-24T00:39:33.823Z,35.33
2023-02-24T00:40:40.180Z,33.63
2023-02-24T00:41:53.696Z,32.70
2023-02-24T00:43:08.375Z,35.05
2023-02-24T00:44:17.393Z,34.33
2023-02-24T00:45:25.231Z,34.88
2023-02-24T00:46:39.666Z,31.63
2023-02-24T00:47:43.778Z,32.30
2023-02-24T00:48:53.596Z,32.28
2023-02-24T00:49:58.966Z,29.55
2023-02-24T00:51:08.564Z,30.88
2023-02-24T00:52:19.293Z,31.73
2023-02-24T00:53:29.637Z,31.00
2023-02-24T00:54:33.862Z,31.73
2023-02-24T00:55:39.402Z,32.53
2023-02-24T00:57:29.524Z,32.83
2023-02-24T00:58:09.403Z,32.63
2023-02-24T00:59:13.329Z,32.75
2023-02-24T01:00:25.033Z,33.55
2023-02-24T01:01:32.261Z,33.40
2023-02-24T01:02:38.734Z,35.03
2023-02-24T01:03:50.410Z,37.00
2023-02-24T01:05:09.403Z,39.88
2023-02-24T01:06:20.624Z,39.83
2023-02-24T01:07:32.793Z,40.40
2023-02-24T01:08:36.869Z,37.80
2023-02-24T01:09:47.830Z,37.35
2023-02-24T01:11:18.816Z,35.40
2023-02-24T01:12:37.870Z,35.08
2023-02-24T01:13:42.702Z,33.35
2023-02-24T01:14:51.655Z,33.95
2023-02-24T01:16:05.349Z,31.80
2023-02-24T01:17:18.509Z,33.95
2023-02-24T01:18:24.914Z,33.92
2023-02-24T01:19:31.834Z,34.88
2023-02-24T01:20:38.824Z,37.10
2023-02-24T01:21:48.156Z,35.78
2023-02-24T01:22:57.209Z,34.22
2023-02-24T01:24:01.444Z,37.13
2023-02-24T01:25:09.534Z,37.03
2023-02-24T01:26:46.789Z,38.13
2023-02-24T01:27:56.116Z,39.35
2023-02-24T01:29:00.346Z,45.22
2023-02-24T01:30:11.364Z,44.42
2023-02-24T01:31:25.709Z,49.70
2023-02-24T01:32:36.606Z,50.47
2023-02-24T01:33:39.683Z,50.75
2023-02-24T01:34:48.721Z,54.17
2023-02-24T01:35:51.108Z,56.58
2023-02-24T01:37:00.235Z,56.13
2023-02-24T01:38:06.753Z,62.85
2023-02-24T01:39:12.549Z,64.15
2023-02-24T01:40:21.851Z,61.15
2023-02-24T01:41:31.135Z,63.00
2023-02-24T01:42:33.624Z,61.05
2023-02-24T01:44:02.111Z,59.08
2023-02-24T01:45:26.105Z,59.30
2023-02-24T01:46:29.894Z,56.88
2023-02-24T01:47:36.544Z,58.33
2023-02-24T01:48:38.921Z,55.95
2023-02-24T01:49:51.075Z,56.33
2023-02-24T01:50:53.862Z,54.22
2023-02-24T01:52:06.854Z,52.70
2023-02-24T01:53:09.370Z,52.90
2023-02-24T01:54:21.058Z,54.45
2023-02-24T01:55:31.289Z,49.20
2023-02-24T01:56:38.142Z,48.70
2023-02-24T01:57:41.504Z,50.03
2023-02-24T01:58:47.556Z,47.67
2023-02-24T02:00:04.193Z,48.20
2023-02-24T02:01:20.622Z,49.47
2023-02-24T02:03:06.375Z,47.10
2023-02-24T02:04:30.980Z,52.88
2023-02-24T02:05:33.349Z,49.75
2023-02-24T02:06:40.236Z,49.50
2023-02-24T02:08:08.707Z,49.42
2023-02-24T02:09:15.275Z,49.88
2023-02-24T02:10:25.189Z,51.72
2023-02-24T02:12:28.443Z,50.05
2023-02-24T02:13:15.496Z,51.35
2023-02-24T02:14:38.509Z,51.83
2023-02-24T02:16:07.230Z,49.63
2023-02-24T02:17:20.580Z,48.00
2023-02-24T02:18:39.785Z,48.47
2023-02-24T02:20:31.241Z,46.65
2023-02-24T02:22:32.586Z,50.28
2023-02-24T02:23:58.186Z,49.80
2023-02-24T02:25:14.380Z,54.63
2023-02-24T02:26:40.760Z,47.38
2023-02-24T02:28:36.380Z,48.92
2023-02-24T02:30:35.836Z,47.30
2023-02-24T02:32:04.424Z,39.78
2023-02-24T02:33:31.816Z,46.65
2023-02-24T02:34:58.744Z,45.50
2023-02-24T02:36:13.700Z,46.92
2023-02-24T02:37:39.085Z,46.40
2023-02-24T02:38:51.460Z,47.33
2023-02-24T02:41:20.706Z,45.45
2023-02-24T02:42:33.666Z,49.20
2023-02-24T02:43:50.374Z,51.53
2023-02-24T02:45:05.188Z,52.35
2023-02-24T02:46:27.265Z,48.28
2023-02-24T02:47:36.320Z,48.22
2023-02-24T02:49:05.572Z,53.20
2023-02-24T02:50:23.402Z,59.22
2023-02-24T02:51:35.500Z,51.72
2023-02-24T02:52:45.740Z,49.55
2023-02-24T02:54:03.982Z,48.55
2023-02-24T02:55:20.893Z,48.45
2023-02-24T02:56:34.902Z,49.10
2023-02-24T02:57:51.551Z,48.55
2023-02-24T02:58:56.730Z,47.45
2023-02-24T03:00:17.723Z,47.25
2023-02-24T03:01:23.604Z,49.53
2023-02-24T03:02:42.090Z,49.75
2023-02-24T03:04:00.148Z,46.03
2023-02-24T03:05:12.865Z,47.20
2023-02-24T03:06:25.151Z,47.72
2023-02-24T03:07:31.489Z,44.85
2023-02-24T03:08:44.512Z,47.83
2023-02-24T03:09:51.780Z,47.50
2023-02-24T03:11:07.255Z,47.17
2023-02-24T03:12:13.010Z,45.75
2023-02-24T03:13:18.222Z,47.70
2023-02-24T03:14:27.446Z,45.17
2023-02-24T03:16:24.327Z,50.00
2023-02-24T03:17:09.246Z,49.10
2023-02-24T03:18:19.196Z,48.28
2023-02-24T03:19:31.339Z,51.30
2023-02-24T03:20:37.287Z,52.38
2023-02-24T03:21:48.223Z,51.13
2023-02-24T03:23:00.101Z,55.03
2023-02-24T03:24:13.608Z,56.17
2023-02-24T03:25:17.245Z,57.08
2023-02-24T03:26:28.400Z,60.25
2023-02-24T03:27:41.657Z,62.45
2023-02-24T03:28:58.871Z,65.47
2023-02-24T03:30:07.417Z,70.90
2023-02-24T03:31:19.364Z,80.47
2023-02-24T03:32:34.708Z,65.25
2023-02-24T03:33:42.946Z,77.95
2023-02-24T03:36:35.840Z,78.05
2023-02-24T03:37:52.489Z,71.10
2023-02-24T03:39:05.410Z,74.45
2023-02-24T03:40:12.927Z,85.35
2023-02-24T03:41:18.840Z,91.90
2023-02-24T03:42:24.039Z,68.43
2023-02-24T03:43:34.325Z,63.70
2023-02-24T03:44:37.426Z,61.97
2023-02-24T03:45:44.042Z,59.58
2023-02-24T03:46:46.411Z,58.67
2023-02-24T03:47:58.403Z,57.95
2023-02-24T03:49:07.515Z,58.60
2023-02-24T03:50:16.986Z,58.00
2023-02-24T03:51:24.566Z,60.88
2023-02-24T03:52:38.926Z,59.28
2023-02-24T03:53:58.212Z,55.72
2023-02-24T03:55:19.184Z,55.88
2023-02-24T03:56:34.071Z,55.13
2023-02-24T03:57:55.103Z,54.72
2023-02-24T03:59:13.462Z,60.85
2023-02-24T04:00:26.605Z,52.95
2023-02-24T04:01:39.042Z,52.47
2023-02-24T04:03:15.080Z,52.50
2023-02-24T04:04:34.831Z,50.05
2023-02-24T04:05:47.702Z,50.08
2023-02-24T04:06:58.286Z,49.88
2023-02-24T04:08:12.037Z,47.97
2023-02-24T04:09:32.109Z,51.78
2023-02-24T04:10:40.624Z,48.63
2023-02-24T04:11:55.179Z,48.45
2023-02-24T04:13:06.654Z,46.75
2023-02-24T04:14:24.156Z,45.00
2023-02-24T04:15:34.058Z,44.40
2023-02-24T04:16:45.624Z,42.72
2023-02-24T04:17:53.750Z,43.83
2023-02-24T04:19:08.698Z,44.90
2023-02-24T04:20:16.279Z,42.33
2023-02-24T04:21:23.918Z,44.45
2023-02-24T04:22:28.672Z,43.47
2023-02-24T04:23:40.845Z,40.75
2023-02-24T04:24:50.299Z,40.55
2023-02-24T04:26:05.238Z,39.33
2023-02-24T04:27:11.641Z,38.42
2023-02-24T04:28:20.414Z,40.72
2023-02-24T04:29:47.705Z,36.28
2023-02-24T04:30:54.059Z,36.50
2023-02-24T04:32:15.652Z,37.78
2023-02-24T04:33:22.641Z,37.70
2023-02-24T04:34:32.613Z,37.30
2023-02-24T04:35:43.235Z,37.28
2023-02-24T04:36:49.736Z,38.35
2023-02-24T04:37:55.339Z,38.58
2023-02-24T04:38:58.851Z,36.25
2023-02-24T04:40:10.883Z,38.15
2023-02-24T04:41:19.273Z,38.80
2023-02-24T04:42:24.661Z,39.00
2023-02-24T04:43:27.340Z,39.35
2023-02-24T04:44:47.471Z,39.13
2023-02-24T04:45:51.910Z,37.55
2023-02-24T04:46:57.065Z,38.72
2023-02-24T04:48:07.530Z,35.72
2023-02-24T04:49:12.655Z,37.53
2023-02-24T04:50:25.395Z,36.63
2023-02-24T04:51:34.256Z,36.95
2023-02-24T04:52:38.141Z,35.55
2023-02-24T04:54:22.482Z,38.67
2023-02-24T04:55:30.780Z,42.63
2023-02-24T04:56:37.934Z,42.03
2023-02-24T04:57:40.602Z,44.83
2023-02-24T04:58:50.873Z,43.95
2023-02-24T04:59:59.053Z,41.65
2023-02-24T05:01:08.897Z,41.35
2023-02-24T05:02:11.411Z,42.05
2023-02-24T05:03:20.077Z,40.80
2023-02-24T05:04:25.470Z,44.42
2023-02-24T05:05:39.102Z,44.70
2023-02-24T05:06:44.282Z,44.65
2023-02-24T05:08:00.390Z,45.22
2023-02-24T05:09:11.038Z,48.03
2023-02-24T05:10:16.820Z,41.80
2023-02-24T05:11:32.635Z,44.40
2023-02-24T05:12:35.078Z,40.95
2023-02-24T05:13:44.963Z,44.10
2023-02-24T05:14:52.876Z,44.13
2023-02-24T05:16:11.633Z,40.22
2023-02-24T05:17:33.278Z,41.88
2023-02-24T05:18:41.682Z,43.40
2023-02-24T05:19:59.098Z,43.38
2023-02-24T05:21:21.320Z,45.63
2023-02-24T05:22:26.422Z,43.38
2023-02-24T05:23:30.226Z,43.97
2023-02-24T05:24:36.246Z,41.85
2023-02-24T05:25:38.988Z,45.95
2023-02-24T05:26:47.374Z,41.97
2023-02-24T05:27:50.284Z,44.42
2023-02-24T05:29:12.374Z,49.28
2023-02-24T05:30:23.648Z,46.95
2023-02-24T05:31:31.417Z,45.88
2023-02-24T05:32:37.766Z,44.58
2023-02-24T05:33:43.640Z,46.60
2023-02-24T05:34:56.037Z,49.53
2023-02-24T05:36:08.402Z,48.90
2023-02-24T05:37:16.744Z,46.13
2023-02-24T05:38:19.952Z,52.60
2023-02-24T05:39:28.457Z,53.58
2023-02-24T05:40:30.782Z,55.92
2023-02-24T05:41:39.158Z,51.40
2023-02-24T05:42:47.012Z,48.97
2023-02-24T05:43:55.926Z,58.80
2023-02-24T05:45:21.935Z,50.40
2023-02-24T05:46:28.652Z,54.00
2023-02-24T05:47:33.637Z,48.90
2023-02-24T05:48:36.064Z,47.58
2023-02-24T05:49:47.534Z,48.95
2023-02-24T05:51:10.602Z,44.95
2023-02-24T05:52:25.675Z,47.10
2023-02-24T05:53:30.114Z,48.92
2023-02-24T05:54:48.450Z,41.45
2023-02-24T05:56:02.243Z,44.75
2023-02-24T05:57:18.577Z,45.67
2023-02-24T05:58:24.804Z,47.70
2023-02-24T05:59:34.222Z,48.85
2023-02-24T06:00:39.305Z,45.33
2023-02-24T06:01:47.358Z,45.45
2023-02-24T06:02:50.185Z,43.10
2023-02-24T06:03:58.160Z,45.33
2023-02-24T06:05:04.679Z,45.58
2023-02-24T06:06:09.105Z,41.65
2023-02-24T06:07:42.812Z,46.28
2023-02-24T06:08:54.150Z,43.78
2023-02-24T06:09:58.528Z,46.47
2023-02-24T06:11:03.457Z,47.15
2023-02-24T06:12:06.193Z,48.50
2023-02-24T06:13:11.241Z,46.58
2023-02-24T06:14:16.631Z,45.38
2023-02-24T06:15:24.605Z,45.75
2023-02-24T06:16:31.936Z,43.15
2023-02-24T06:17:34.340Z,44.05
2023-02-24T06:18:41.037Z,43.25
2023-02-24T06:19:43.604Z,43.17
2023-02-24T06:20:51.448Z,45.25
2023-02-24T06:21:57.069Z,47.60
2023-02-24T06:23:05.461Z,50.58
2023-02-24T06:24:18.767Z,46.70
2023-02-24T06:25:26.906Z,48.38
2023-02-24T06:26:30.098Z,46.65
2023-02-24T06:27:36.701Z,49.58
2023-02-24T06:28:41.250Z,47.72
2023-02-24T06:30:05.862Z,51.70
2023-02-24T06:31:14.426Z,49.65
2023-02-24T06:32:41.077Z,55.05
2023-02-24T06:34:09.437Z,51.20
2023-02-24T06:35:32.361Z,54.97
2023-02-24T06:37:03.331Z,52.40
2023-02-24T06:38:18.585Z,58.05
2023-02-24T06:39:39.836Z,55.20
2023-02-24T06:40:59.683Z,48.58
2023-02-24T06:42:13.923Z,51.20
2023-02-24T06:43:37.068Z,57.90
2023-02-24T06:44:50.354Z,53.47
2023-02-24T06:46:09.887Z,53.13
2023-02-24T06:47:24.362Z,56.42
2023-02-24T06:48:28.166Z,57.35
2023-02-24T06:49:33.542Z,59.17
2023-02-24T06:50:35.979Z,61.08
2023-02-24T06:51:48.937Z,57.08
2023-02-24T06:53:02.439Z,68.22
2023-02-24T06:54:11.015Z,71.35
2023-02-24T06:55:25.675Z,66.95
2023-02-24T06:57:02.583Z,73.85
2023-02-24T06:58:05.001Z,65.57
2023-02-24T06:59:17.778Z,67.18
2023-02-24T07:00:36.655Z,69.65
2023-02-24T07:01:49.468Z,64.70
2023-02-24T07:02:57.206Z,64.53
2023-02-24T07:04:22.254Z,65.97
2023-02-24T07:05:34.695Z,67.28
2023-02-24T07:06:56.586Z,74.97
2023-02-24T07:09:33.097Z,63.28
2023-02-24T07:10:42.737Z,77.03
2023-02-24T07:13:28.862Z,75.65
2023-02-24T07:13:29.367Z,60.10
2023-02-24T07:14:41.982Z,74.95
2023-02-24T07:15:53.236Z,75.30
2023-02-24T07:17:18.033Z,71.38
2023-02-24T07:18:21.925Z,75.70
2023-02-24T07:19:39.756Z,76.78
2023-02-24T07:21:28.444Z,74.93
2023-02-24T07:22:36.103Z,70.15
2023-02-24T07:23:49.627Z,81.57
2023-02-24T07:25:05.279Z,76.70
2023-02-24T07:26:13.531Z,87.68
2023-02-24T07:27:30.357Z,85.72
2023-02-24T07:28:51.597Z,78.57
2023-02-24T07:30:16.384Z,79.55
2023-02-24T07:31:26.437Z,92.60
2023-02-24T07:33:01.752Z,80.10
2023-02-24T07:34:32.031Z,73.75
2023-02-24T07:35:45.221Z,84.50
2023-02-24T07:36:58.722Z,81.85
2023-02-24T07:38:17.770Z,73.78
2023-02-24T07:40:19.513Z,74.25
2023-02-24T07:41:31.262Z,75.43
2023-02-24T07:45:05.081Z,74.32
2023-02-24T07:46:29.685Z,78.60
2023-02-24T07:47:51.455Z,78.30
2023-02-24T07:48:59.436Z,69.53
2023-02-24T07:50:06.881Z,76.72
2023-02-24T07:51:22.445Z,66.10
2023-02-24T07:52:41.217Z,66.70
2023-02-24T07:55:11.114Z,66.72
2023-02-24T07:55:33.440Z,71.20
2023-02-24T07:56:46.387Z,71.65
2023-02-24T07:58:12.220Z,63.85
2023-02-24T07:59:23.543Z,66.75
2023-02-24T08:01:24.260Z,77.65
2023-02-24T08:03:07.437Z,66.28
2023-02-24T08:06:56.534Z,71.53
2023-02-24T08:08:03.445Z,76.78
2023-02-24T08:09:27.326Z,86.55
2023-02-24T08:10:59.857Z,83.50
2023-02-24T08:12:11.153Z,79.38
2023-02-24T08:15:36.435Z,73.05
2023-02-24T08:17:15.955Z,70.78
2023-02-24T08:18:42.864Z,67.20
2023-02-24T08:20:37.606Z,74.47
2023-02-24T08:22:20.557Z,89.75
2023-02-24T08:24:04.720Z,76.18
2023-02-24T08:25:36.689Z,72.10
2023-02-24T08:28:46.962Z,70.22
2023-02-24T08:30:55.021Z,66.90
2023-02-24T08:33:26.184Z,62.13
2023-02-24T08:34:51.264Z,65.70
2023-02-24T08:36:44.641Z,53.38
2023-02-24T08:38:12.024Z,65.88
2023-02-24T08:40:07.913Z,51.15
2023-02-24T08:41:25.454Z,54.10
2023-02-24T08:42:59.850Z,54.80
2023-02-24T08:44:35.438Z,49.55
2023-02-24T08:45:44.780Z,47.05
2023-02-24T08:47:15.537Z,47.45
2023-02-24T08:50:32.698Z,46.75
2023-02-24T08:52:12.824Z,43.83
2023-02-24T08:53:16.598Z,44.65
2023-02-24T08:54:50.344Z,42.25
2023-02-24T08:56:26.675Z,43.70
2023-02-24T08:57:46.229Z,45.95
2023-02-24T08:59:07.606Z,51.10
2023-02-24T09:00:28.311Z,49.92
2023-02-24T09:03:59.693Z,50.15
2023-02-24T09:05:14.371Z,48.30
2023-02-24T09:08:48.661Z,50.28
2023-02-24T09:10:40.745Z,46.70
2023-02-24T09:12:10.141Z,50.55
2023-02-24T09:13:39.126Z,52.05
2023-02-24T09:15:11.396Z,58.33
2023-02-24T09:18:44.951Z,52.65
2023-02-24T09:20:09.458Z,56.65
2023-02-24T09:21:30.909Z,47.00
2023-02-24T09:23:05.789Z,49.03
2023-02-24T09:24:14.462Z,47.38
2023-02-24T09:26:06.523Z,47.30
2023-02-24T09:27:33.719Z,44.95
2023-02-24T09:29:05.475Z,47.08
2023-02-24T09:30:40.100Z,44.53
2023-02-24T09:32:18.100Z,44.83
2023-02-24T09:33:29.267Z,42.72
2023-02-24T09:34:46.134Z,49.28
2023-02-24T09:35:58.170Z,42.25
2023-02-24T09:37:52.990Z,41.42
2023-02-24T09:39:35.193Z,44.55
2023-02-24T09:41:19.949Z,44.60
2023-02-24T09:42:44.759Z,42.40
2023-02-24T09:44:07.812Z,46.80
2023-02-24T09:46:10.701Z,46.95
2023-02-24T09:47:31.582Z,46.35
2023-02-24T09:49:52.076Z,40.92
2023-02-24T09:51:24.996Z,42.80
2023-02-24T09:53:20.943Z,43.55
2023-02-24T09:55:24.997Z,46.28
2023-02-24T09:56:47.350Z,42.67
2023-02-24T09:58:41.748Z,45.97
2023-02-24T10:00:29.956Z,42.25
2023-02-24T10:02:11.095Z,47.60
2023-02-24T10:03:53.686Z,45.63
2023-02-24T10:07:51.244Z,41.00
2023-02-24T10:08:57.261Z,44.60
2023-02-24T10:10:52.851Z,47.20
2023-02-24T10:13:18.251Z,46.42
2023-02-24T10:14:37.933Z,48.55
2023-02-24T10:16:11.725Z,46.60
2023-02-24T10:18:27.082Z,43.00
2023-02-24T10:19:27.637Z,42.42
2023-02-24T10:20:47.639Z,46.42
2023-02-24T10:22:18.479Z,44.72
2023-02-24T10:23:45.885Z,46.42
2023-02-24T10:25:21.081Z,41.90
2023-02-24T10:26:59.636Z,44.63
2023-02-24T10:28:39.290Z,37.83
2023-02-24T10:31:00.036Z,43.83
2023-02-24T10:31:48.008Z,44.60
2023-02-24T10:33:18.056Z,44.90
2023-02-24T10:34:31.996Z,44.50
2023-02-24T10:35:45.921Z,42.08
2023-02-24T10:37:10.334Z,40.92
2023-02-24T10:38:44.784Z,39.80
2023-02-24T10:40:15.684Z,38.00
2023-02-24T10:41:52.987Z,43.25
2023-02-24T10:43:26.796Z,38.72
2023-02-24T10:44:40.110Z,42.28
2023-02-24T10:45:45.744Z,40.80
2023-02-24T10:47:13.657Z,41.63
2023-02-24T10:48:41.766Z,39.55
2023-02-24T10:50:04.081Z,45.35
2023-02-24T10:51:30.731Z,48.92
2023-02-24T10:53:11.508Z,44.15
2023-02-24T10:54:31.128Z,46.22
2023-02-24T10:55:55.437Z,48.67
2023-02-24T10:57:16.006Z,46.15
2023-02-24T10:58:45.052Z,41.92
2023-02-24T11:00:36.713Z,44.83
2023-02-24T11:02:20.212Z,41.88
2023-02-24T11:03:36.373Z,41.45
2023-02-24T11:06:29.749Z,42.95
2023-02-24T11:07:09.921Z,40.22
2023-02-24T11:08:44.289Z,36.28
2023-02-24T11:09:54.018Z,36.70
2023-02-24T11:11:08.339Z,33.90
2023-02-24T11:12:31.800Z,33.83
2023-02-24T11:13:57.064Z,38.53
2023-02-24T11:15:17.876Z,42.50
2023-02-24T11:16:48.066Z,35.22
2023-02-24T11:18:10.598Z,35.80
2023-02-24T11:19:56.456Z,32.55
2023-02-24T11:21:34.615Z,30.63
2023-02-24T11:22:56.914Z,32.58
2023-02-24T11:24:08.355Z,30.13
2023-02-24T11:25:35.534Z,30.60
2023-02-24T11:27:45.618Z,28.25
2023-02-24T11:28:36.116Z,29.75
2023-02-24T11:30:02.003Z,32.80
2023-02-24T11:31:28.297Z,29.05
2023-02-24T11:33:02.786Z,30.13
2023-02-24T11:34:20.804Z,27.05
2023-02-24T11:35:31.735Z,29.77
2023-02-24T11:36:50.997Z,30.13
2023-02-24T11:38:11.679Z,28.65
2023-02-24T11:39:40.260Z,27.25
2023-02-24T11:41:01.815Z,27.15
2023-02-24T11:42:12.661Z,32.08
2023-02-24T11:43:29.449Z,29.35
2023-02-24T11:44:44.500Z,31.80
2023-02-24T11:46:03.686Z,32.13
2023-02-24T11:47:17.157Z,28.33
2023-02-24T11:48:47.616Z,31.15
2023-02-24T11:50:09.049Z,30.48
2023-02-24T11:51:33.148Z,27.48
2023-02-24T11:52:44.655Z,26.95
2023-02-24T11:53:57.978Z,27.45
2023-02-24T11:55:04.157Z,33.30
2023-02-24T11:56:15.089Z,32.78
2023-02-24T11:57:36.146Z,32.03
2023-02-24T11:58:51.158Z,28.00
2023-02-24T12:00:24.544Z,27.42
2023-02-24T12:01:45.655Z,28.77
2023-02-24T12:02:56.510Z,26.90
2023-02-24T12:04:18.600Z,27.52
2023-02-24T12:05:25.453Z,27.98
2023-02-24T12:06:46.804Z,28.75
2023-02-24T12:07:56.661Z,28.27
2023-02-24T12:09:14.820Z,29.05
2023-02-24T12:10:47.810Z,27.73
2023-02-24T12:12:06.552Z,27.77
2023-02-24T12:13:34.779Z,26.85
2023-02-24T12:14:49.991Z,29.50
2023-02-24T12:16:13.821Z,26.92
2023-02-24T12:17:45.220Z,28.65
2023-02-24T12:19:00.714Z,28.48
2023-02-24T12:20:06.324Z,26.73
2023-02-24T12:21:20.652Z,26.83
2023-02-24T12:22:47.406Z,27.65
2023-02-24T12:23:59.849Z,25.35
2023-02-24T12:25:35.452Z,26.95
2023-02-24T12:27:10.651Z,36.45
2023-02-24T12:28:54.023Z,29.70
2023-02-24T12:30:51.965Z,35.75
2023-02-24T12:32:26.126Z,28.20
2023-02-24T12:34:48.464Z,29.70
2023-02-24T12:35:51.812Z,27.85
2023-02-24T12:37:32.167Z,27.33
2023-02-24T12:38:48.358Z,28.15
2023-02-24T12:40:03.675Z,28.25
2023-02-24T12:41:29.889Z,30.70
2023-02-24T12:42:43.489Z,29.20
2023-02-24T12:43:56.054Z,28.40
2023-02-24T12:45:12.872Z,27.10
2023-02-24T12:46:50.130Z,27.05
2023-02-24T12:48:06.025Z,27.77
2023-02-24T12:49:30.906Z,29.08
2023-02-24T12:50:49.767Z,28.85
2023-02-24T12:52:10.422Z,27.35
2023-02-24T12:53:26.522Z,25.95
2023-02-24T12:54:36.885Z,32.17
2023-02-24T12:55:54.393Z,28.85
2023-02-24T12:57:19.492Z,30.65
2023-02-24T12:58:59.174Z,26.73
2023-02-24T13:00:28.056Z,23.80
2023-02-24T13:01:51.777Z,25.67
2023-02-24T13:03:11.641Z,23.85
2023-02-24T13:04:40.094Z,28.38
2023-02-24T13:05:51.796Z,24.83
2023-02-24T13:08:39.141Z,24.13
2023-02-24T13:09:58.832Z,26.88
2023-02-24T13:11:13.192Z,24.95
2023-02-24T13:12:35.679Z,23.15
2023-02-24T13:14:00.943Z,25.30
2023-02-24T13:15:12.293Z,23.85
2023-02-24T13:16:21.781Z,22.48
2023-02-24T13:17:53.582Z,21.83
2023-02-24T13:20:27.700Z,23.27
2023-02-24T13:20:48.268Z,20.50
2023-02-24T13:22:01.892Z,22.35
2023-02-24T13:23:40.834Z,24.15
2023-02-24T13:25:04.083Z,21.20
2023-02-24T13:26:51.296Z,24.70
2023-02-24T13:28:03.674Z,19.30
2023-02-24T13:29:13.240Z,21.42
2023-02-24T13:30:33.381Z,22.10
2023-02-24T13:31:48.161Z,23.90
2023-02-24T13:33:24.526Z,21.67
2023-02-24T13:34:46.681Z,22.23
2023-02-24T13:35:59.986Z,22.77
2023-02-24T13:37:06.730Z,22.50
2023-02-24T13:38:25.070Z,22.00
2023-02-24T13:40:28.485Z,25.27
2023-02-24T13:41:26.505Z,28.33
2023-02-24T13:42:50.944Z,27.98
2023-02-24T13:44:34.123Z,24.38
2023-02-24T13:45:46.240Z,26.02
2023-02-24T13:47:01.789Z,25.33
2023-02-24T13:48:38.243Z,24.00
2023-02-24T13:49:52.720Z,25.95
2023-02-24T13:51:14.516Z,22.30
2023-02-24T13:52:34.597Z,20.00
2023-02-24T13:54:02.543Z,24.88
2023-02-24T13:55:30.938Z,23.50
2023-02-24T13:56:46.971Z,27.63
2023-02-24T13:58:08.306Z,23.15
2023-02-24T13:59:35.694Z,21.65
2023-02-24T14:00:58.793Z,21.10
2023-02-24T14:02:08.203Z,21.75
2023-02-24T14:03:16.054Z,23.65
2023-02-24T14:04:24.703Z,22.50
2023-02-24T14:06:00.408Z,21.33
2023-02-24T14:07:23.645Z,29.52
2023-02-24T14:08:38.188Z,20.70
2023-02-24T14:09:45.334Z,23.63
2023-02-24T14:10:56.472Z,22.35
2023-02-24T14:12:01.958Z,20.85
2023-02-24T14:13:10.971Z,21.20
2023-02-24T14:14:18.371Z,23.00
2023-02-24T14:15:35.391Z,23.63
2023-02-24T14:16:40.503Z,24.70
2023-02-24T14:17:51.759Z,31.02
2023-02-24T14:19:01.290Z,26.55
2023-02-24T14:20:23.797Z,28.83
2023-02-24T14:21:36.330Z,26.85
2023-02-24T14:23:12.593Z,29.15
2023-02-24T14:24:18.501Z,25.02
2023-02-24T14:25:31.077Z,27.75
2023-02-24T14:27:06.993Z,29.45
2023-02-24T14:28:32.546Z,29.70
2023-02-24T14:29:48.325Z,33.20
2023-02-24T14:30:54.734Z,28.92
2023-02-24T14:32:04.989Z,29.00
2023-02-24T14:33:14.578Z,28.92
2023-02-24T14:34:22.562Z,29.80
2023-02-24T14:35:36.504Z,30.83
2023-02-24T14:36:50.382Z,31.95
2023-02-24T14:38:00.281Z,27.67
2023-02-24T14:39:14.110Z,28.48
2023-02-24T14:40:34.645Z,22.77
2023-02-24T14:41:41.559Z,31.77
2023-02-24T14:42:50.769Z,28.65
2023-02-24T14:44:14.151Z,30.48
2023-02-24T14:45:33.515Z,24.77
2023-02-24T14:46:57.238Z,29.75
2023-02-24T14:48:38.018Z,26.27
2023-02-24T14:49:52.484Z,29.95
2023-02-24T14:51:18.852Z,28.13
2023-02-24T14:53:07.296Z,30.65
2023-02-24T14:54:27.644Z,30.33
2023-02-24T14:55:48.715Z,30.40
2023-02-24T14:57:04.470Z,28.67
2023-02-24T14:58:16.410Z,29.42
2023-02-24T14:59:31.566Z,27.02
2023-02-24T15:00:42.735Z,30.52
2023-02-24T15:02:01.688Z,35.40
2023-02-24T15:03:17.031Z,30.20
2023-02-24T15:04:33.890Z,29.35
2023-02-24T15:05:45.165Z,30.63
2023-02-24T15:06:51.292Z,27.63
2023-02-24T15:08:00.879Z,32.42
2023-02-24T15:09:15.012Z,30.60
2023-02-24T15:10:26.783Z,32.88
2023-02-24T15:11:39.245Z,31.17
2023-02-24T15:13:00.732Z,31.60
2023-02-24T15:14:42.123Z,32.13
2023-02-24T15:15:53.007Z,33.75
2023-02-24T15:17:02.010Z,28.27
2023-02-24T15:18:29.558Z,33.08
2023-02-24T15:19:59.147Z,31.17
2023-02-24T15:21:08.141Z,28.45
2023-02-24T15:22:25.178Z,29.45
2023-02-24T15:23:52.164Z,29.38
2023-02-24T15:25:33.837Z,26.27
2023-02-24T15:26:59.396Z,29.02
2023-02-24T15:28:08.034Z,32.83
2023-02-24T15:29:27.098Z,29.63
2023-02-24T15:30:36.169Z,31.75
2023-02-24T15:33:16.219Z,32.80
2023-02-24T15:33:34.768Z,31.42
2023-02-24T15:34:42.189Z,33.60
2023-02-24T15:35:54.113Z,33.15
2023-02-24T15:37:31.856Z,29.70
2023-02-24T15:38:56.987Z,33.00
2023-02-24T15:40:58.021Z,26.75
2023-02-24T15:42:38.370Z,28.42
2023-02-24T15:44:23.911Z,28.05
2023-02-24T15:45:43.734Z,32.22
2023-02-24T15:46:50.853Z,32.88
2023-02-24T15:48:00.762Z,31.83
2023-02-24T15:49:10.791Z,32.15
2023-02-24T15:50:22.363Z,30.77
2023-02-24T15:52:46.676Z,28.60
2023-02-24T15:53:53.851Z,30.40
2023-02-24T15:55:10.822Z,31.40
2023-02-24T15:59:28.462Z,27.27
2023-02-24T15:59:44.140Z,30.27
2023-02-24T16:00:33.950Z,29.27
2023-02-24T16:01:39.399Z,32.72
2023-02-24T16:02:46.808Z,31.02
2023-02-24T16:03:56.060Z,31.10
2023-02-24T16:04:59.101Z,29.33
2023-02-24T16:06:04.660Z,30.77
2023-02-24T16:07:17.162Z,31.23
2023-02-24T16:08:30.214Z,30.08
2023-02-24T16:09:37.345Z,29.77
2023-02-24T16:10:54.239Z,28.50
2023-02-24T16:12:51.014Z,29.55
2023-02-24T16:13:58.327Z,31.77
2023-02-24T16:15:04.406Z,30.25
2023-02-24T16:16:10.957Z,28.10
2023-02-24T16:17:33.467Z,29.10
2023-02-24T16:18:36.270Z,32.00
2023-02-24T16:19:41.190Z,34.33
2023-02-24T16:20:47.763Z,34.13
2023-02-24T16:21:52.919Z,35.97
2023-02-24T16:22:56.780Z,33.70
2023-02-24T16:24:06.192Z,37.05
2023-02-24T16:25:13.359Z,31.98
2023-02-24T16:26:21.748Z,32.45
2023-02-24T16:27:27.555Z,31.45
2023-02-24T16:28:37.511Z,32.35
2023-02-24T16:29:42.104Z,29.70
2023-02-24T16:30:47.937Z,38.13
2023-02-24T16:31:53.222Z,33.33
2023-02-24T16:32:55.575Z,33.50
2023-02-24T16:34:00.900Z,34.13
2023-02-24T16:35:05.185Z,34.47
2023-02-24T16:36:13.782Z,33.85
2023-02-24T16:37:22.799Z,35.33
2023-02-24T16:38:29.983Z,36.78
2023-02-24T16:39:35.604Z,37.53
2023-02-24T16:40:40.628Z,34.47
2023-02-24T16:41:43.427Z,34.97
2023-02-24T16:42:50.217Z,41.67
2023-02-24T16:43:57.954Z,34.50
2023-02-24T16:45:00.623Z,33.53
2023-02-24T16:46:08.424Z,32.40
2023-02-24T16:47:18.020Z,31.83
2023-02-24T16:48:26.049Z,33.90
2023-02-24T16:49:31.540Z,34.40
2023-02-24T16:50:40.288Z,32.00
2023-02-24T16:51:46.602Z,37.28
2023-02-24T16:52:51.678Z,33.30
2023-02-24T16:53:56.659Z,32.40
2023-02-24T16:55:09.311Z,34.13
2023-02-24T16:56:21.989Z,37.05
2023-02-24T16:57:31.203Z,34.17
2023-02-24T16:58:40.609Z,39.03
2023-02-24T16:59:52.529Z,36.17
2023-02-24T17:01:17.035Z,33.65
2023-02-24T17:02:26.809Z,36.15
2023-02-24T17:03:34.638Z,35.58
2023-02-24T17:04:37.068Z,33.92
2023-02-24T17:05:45.161Z,37.63
2023-02-24T17:06:55.559Z,38.40
2023-02-24T17:08:01.658Z,35.53
2023-02-24T17:09:14.364Z,35.97
2023-02-24T17:10:27.138Z,38.90
2023-02-24T17:11:35.060Z,36.03
2023-02-24T17:12:37.670Z,35.75
2023-02-24T17:13:43.938Z,34.38
2023-02-24T17:15:00.752Z,36.97
2023-02-24T17:16:06.630Z,41.60